Time;durP1;ratioP1;P1;durP2;ratioP2;P2;SDS_P1;SDS_P2;PMS_P1;PMS_P2;Temp;Humidity;BMP_temperature;BMP_pressure;BME280_temperature;BME280_humidity;BME280_pressure;Samples;Min_cycle;Max_cycle;Signal;HPM_P1;HPM_P2
2024/03/04 00:02:23;;;;;;;2.40;2.40;;;;;;;;;;5026603;28;20477;-74
2024/03/04 00:04:51;;;;;;;2.20;2.20;;;;;;;;;;5024339;28;20472;-72
2024/03/04 00:07:18;;;;;;;2.40;2.40;;;;;;;;;;5019943;28;20574;-72
2024/03/04 00:09:45;;;;;;;2.97;2.97;;;;;;;;;;5026270;28;20461;-72
2024/03/04 00:12:14;;;;;;;2.80;2.80;;;;;;;;;;5029574;28;20501;-74
2024/03/04 00:14:41;;;;;;;2.70;2.70;;;;;;;;;;5030047;28;20457;-72
2024/03/04 00:17:09;;;;;;;2.37;2.37;;;;;;;;;;5028847;28;20476;-72
2024/03/04 00:19:37;;;;;;;2.70;2.70;;;;;;;;;;5022955;28;20473;-73
2024/03/04 00:22:04;;;;;;;2.70;2.70;;;;;;;;;;5023707;28;20531;-71
2024/03/04 00:24:32;;;;;;;2.57;2.57;;;;;;;;;;5029662;28;20902;-72
2024/03/04 00:26:59;;;;;;;2.80;2.80;;;;;;;;;;5029636;28;20459;-72
2024/03/04 00:29:27;;;;;;;2.40;2.40;;;;;;;;;;5026734;28;20457;-72
2024/03/04 00:31:54;;;;;;;2.57;2.57;;;;;;;;;;5029621;28;20493;-72
2024/03/04 00:34:23;;;;;;;2.27;2.27;;;;;;;;;;5026976;28;20477;-72
2024/03/04 00:36:51;;;;;;;2.30;2.30;;;;;;;;;;5024860;28;20815;-72
2024/03/04 00:39:18;;;;;;;1.90;1.90;;;;;;;;;;5023794;28;20475;-73
2024/03/04 00:41:47;;;;;;;2.13;2.13;;;;;;;;;;5023873;28;20472;-72
2024/03/04 00:44:14;;;;;;;2.70;2.70;;;;;;;;;;5029509;28;20491;-72
2024/03/04 00:46:41;;;;;;;2.30;2.30;;;;;;;;;;5029256;28;20461;-72
2024/03/04 00:49:09;;;;;;;2.20;2.20;;;;;;;;;;5026771;28;20470;-74
2024/03/04 00:51:38;;;;;;;2.27;2.27;;;;;;;;;;5024835;28;20488;-73
2024/03/04 00:54:06;;;;;;;2.40;2.40;;;;;;;;;;5025348;28;20480;-72
2024/03/04 00:56:34;;;;;;;2.27;2.27;;;;;;;;;;5029250;28;20955;-73
2024/03/04 00:59:02;;;;;;;2.43;2.43;;;;;;;;;;5017235;28;20465;-72
2024/03/04 01:01:29;;;;;;;2.40;2.40;;;;;;;;;;4995386;28;21286;-72
2024/03/04 01:03:57;;;;;;;2.30;2.30;;;;;;;;;;4994804;28;21151;-72
2024/03/04 01:06:27;;;;;;;2.53;2.53;;;;;;;;;;4994702;28;20469;-71
2024/03/04 01:08:56;;;;;;;3.13;3.13;;;;;;;;;;4993267;28;20607;-72
2024/03/04 01:11:23;;;;;;;3.10;3.10;;;;;;;;;;4993315;28;20799;-73
2024/03/04 01:13:51;;;;;;;2.73;2.73;;;;;;;;;;4996075;28;20484;-73
2024/03/04 01:16:18;;;;;;;2.80;2.80;;;;;;;;;;4996206;28;20450;-74
2024/03/04 01:18:45;;;;;;;3.00;3.00;;;;;;;;;;4994028;28;20461;-73
2024/03/04 01:21:12;;;;;;;2.87;2.87;;;;;;;;;;4996120;28;20488;-73
2024/03/04 01:23:40;;;;;;;2.90;2.90;;;;;;;;;;4993738;28;20911;-72
2024/03/04 01:26:09;;;;;;;3.20;3.20;;;;;;;;;;4995191;28;20920;-72
2024/03/04 01:28:37;;;;;;;3.43;3.43;;;;;;;;;;4993982;28;20473;-74
2024/03/04 01:31:04;;;;;;;3.03;3.03;;;;;;;;;;4993061;28;21024;-73
2024/03/04 01:33:31;;;;;;;3.17;3.17;;;;;;;;;;4994403;28;20460;-73
2024/03/04 01:36:00;;;;;;;3.50;3.50;;;;;;;;;;4995484;28;21113;-72
2024/03/04 01:38:27;;;;;;;3.40;3.40;;;;;;;;;;4994564;28;20472;-73
2024/03/04 01:40:54;;;;;;;3.33;3.33;;;;;;;;;;4994090;28;20474;-72
2024/03/04 01:43:23;;;;;;;3.37;3.37;;;;;;;;;;4994781;28;22501;-74
2024/03/04 01:45:51;;;;;;;3.27;3.27;;;;;;;;;;4992956;28;20470;-73
2024/03/04 01:48:18;;;;;;;3.40;3.40;;;;;;;;;;4992285;28;20464;-72
2024/03/04 01:50:45;;;;;;;3.40;3.40;;;;;;;;;;4994122;28;20508;-73
2024/03/04 01:53:13;;;;;;;3.67;3.67;;;;;;;;;;4994899;28;20484;-72
2024/03/04 01:55:43;;;;;;;3.43;3.43;;;;;;;;;;4995827;28;20591;-73
2024/03/04 01:58:11;;;;;;;4.03;4.03;;;;;;;;;;4992839;28;20513;-73
2024/03/04 02:00:41;;;;;;;3.93;3.93;;;;;;;;;;5025613;28;20472;-74
2024/03/04 02:03:09;;;;;;;3.83;3.83;;;;;;;;;;5021036;28;20473;-72
2024/03/04 02:05:36;;;;;;;3.80;3.80;;;;;;;;;;5028402;28;20450;-72
2024/03/04 02:08:04;;;;;;;3.70;3.70;;;;;;;;;;5018754;28;21189;-72
2024/03/04 02:10:31;;;;;;;4.00;4.00;;;;;;;;;;5025644;28;20466;-74
2024/03/04 02:12:58;;;;;;;4.07;4.07;;;;;;;;;;5020267;28;20965;-73
2024/03/04 02:15:25;;;;;;;3.97;3.97;;;;;;;;;;5027970;28;20457;-73
2024/03/04 02:17:54;;;;;;;4.00;4.00;;;;;;;;;;5025628;28;20472;-73
2024/03/04 02:20:23;;;;;;;3.83;3.83;;;;;;;;;;5030904;28;20781;-73
2024/03/04 02:22:51;;;;;;;3.90;3.90;;;;;;;;;;5023627;28;20471;-72
2024/03/04 02:25:22;;;;;;;3.60;3.60;;;;;;;;;;5031489;28;21038;-74
2024/03/04 02:27:49;;;;;;;3.73;3.73;;;;;;;;;;5032137;28;20967;-72
2024/03/04 02:30:16;;;;;;;3.80;3.80;;;;;;;;;;5026217;28;20461;-73
2024/03/04 02:32:44;;;;;;;4.30;4.30;;;;;;;;;;5032102;28;20496;-74
2024/03/04 02:35:11;;;;;;;4.23;4.23;;;;;;;;;;5024639;28;20843;-74
2024/03/04 02:37:38;;;;;;;4.00;4.00;;;;;;;;;;5031968;28;20467;-72
2024/03/04 02:40:08;;;;;;;4.40;4.40;;;;;;;;;;5026997;28;20475;-73
2024/03/04 02:42:36;;;;;;;3.93;3.93;;;;;;;;;;5025085;28;20461;-72
2024/03/04 02:45:03;;;;;;;4.17;4.17;;;;;;;;;;5031964;28;20519;-73
2024/03/04 02:47:30;;;;;;;4.03;4.03;;;;;;;;;;5027683;28;21018;-72
2024/03/04 02:49:58;;;;;;;4.43;4.43;;;;;;;;;;5028547;28;20471;-73
2024/03/04 02:52:25;;;;;;;3.83;3.83;;;;;;;;;;5022734;28;20496;-72
2024/03/04 02:54:52;;;;;;;3.50;3.50;;;;;;;;;;5024086;28;20477;-72
2024/03/04 02:57:20;;;;;;;3.60;3.60;;;;;;;;;;5031279;28;20472;-72
2024/03/04 02:59:47;;;;;;;3.40;3.40;;;;;;;;;;5020321;28;20462;-73
2024/03/04 03:02:17;;;;;;;3.33;3.33;;;;;;;;;;5029139;28;21013;-73
2024/03/04 03:04:44;;;;;;;3.60;3.60;;;;;;;;;;5031536;28;21366;-74
2024/03/04 03:07:11;;;;;;;3.70;3.70;;;;;;;;;;5027672;28;20519;-72
2024/03/04 03:09:38;;;;;;;3.30;3.30;;;;;;;;;;5020058;28;20465;-73
2024/03/04 03:12:06;;;;;;;3.03;3.03;;;;;;;;;;5025520;28;20846;-72
2024/03/04 03:14:37;;;;;;;3.67;3.67;;;;;;;;;;5029844;28;20468;-73
2024/03/04 03:17:05;;;;;;;3.63;3.63;;;;;;;;;;5029204;28;20461;-73
2024/03/04 03:19:33;;;;;;;3.80;3.80;;;;;;;;;;5030969;28;20460;-74
2024/03/04 03:22:00;;;;;;;3.70;3.70;;;;;;;;;;5027112;28;20457;-72
2024/03/04 03:24:27;;;;;;;3.10;3.10;;;;;;;;;;5030188;28;20472;-73
2024/03/04 03:26:54;;;;;;;3.47;3.47;;;;;;;;;;5027130;28;20556;-73
2024/03/04 03:29:22;;;;;;;3.67;3.67;;;;;;;;;;5030967;28;20464;-73
2024/03/04 03:31:50;;;;;;;3.30;3.30;;;;;;;;;;5025816;28;21088;-74
2024/03/04 03:34:17;;;;;;;3.43;3.43;;;;;;;;;;5026063;28;20560;-72
2024/03/04 03:36:44;;;;;;;3.70;3.70;;;;;;;;;;5022516;28;20476;-73
2024/03/04 03:39:14;;;;;;;3.50;3.50;;;;;;;;;;5022471;28;20479;-73
2024/03/04 03:41:41;;;;;;;3.40;3.40;;;;;;;;;;5017473;28;20465;-73
2024/03/04 03:44:09;;;;;;;3.57;3.57;;;;;;;;;;5026622;28;20552;-74
2024/03/04 03:46:36;;;;;;;3.43;3.43;;;;;;;;;;5026683;28;20974;-72
2024/03/04 03:49:04;;;;;;;3.97;3.97;;;;;;;;;;5030511;28;20467;-72
2024/03/04 03:51:31;;;;;;;4.30;4.30;;;;;;;;;;5023411;28;21011;-72
2024/03/04 03:53:59;;;;;;;3.70;3.70;;;;;;;;;;5025118;28;20547;-74
2024/03/04 03:56:26;;;;;;;4.00;4.00;;;;;;;;;;5030588;28;20465;-73
2024/03/04 03:58:53;;;;;;;4.10;4.10;;;;;;;;;;5020323;28;20458;-73
2024/03/04 04:01:20;;;;;;;4.10;4.10;;;;;;;;;;5022704;28;20893;-73
2024/03/04 04:03:48;;;;;;;4.50;4.50;;;;;;;;;;5023530;28;20473;-73
2024/03/04 04:06:16;;;;;;;4.80;4.80;;;;;;;;;;5026333;28;20465;-72
2024/03/04 04:08:43;;;;;;;4.60;4.60;;;;;;;;;;5024598;28;20497;-72
2024/03/04 04:11:10;;;;;;;5.07;5.07;;;;;;;;;;5027948;28;20472;-72
2024/03/04 04:13:37;;;;;;;4.47;4.47;;;;;;;;;;5030591;28;20568;-74
2024/03/04 04:16:05;;;;;;;4.30;4.30;;;;;;;;;;5022676;28;20492;-74
2024/03/04 04:18:32;;;;;;;4.70;4.70;;;;;;;;;;5027882;28;21007;-72
2024/03/04 04:20:59;;;;;;;4.30;4.30;;;;;;;;;;5026906;28;20481;-72
2024/03/04 04:23:28;;;;;;;4.70;4.70;;;;;;;;;;5017766;28;20551;-72
2024/03/04 04:25:55;;;;;;;4.50;4.50;;;;;;;;;;5027811;28;20469;-74
2024/03/04 04:28:25;;;;;;;4.53;4.53;;;;;;;;;;5029948;28;20462;-73
2024/03/04 04:30:52;;;;;;;4.43;4.43;;;;;;;;;;5022209;28;20468;-72
2024/03/04 04:33:19;;;;;;;4.27;4.27;;;;;;;;;;5022116;28;20493;-73
2024/03/04 04:35:46;;;;;;;4.10;4.10;;;;;;;;;;5029245;28;20544;-72
2024/03/04 04:38:13;;;;;;;4.47;4.47;;;;;;;;;;5029847;28;20480;-74
2024/03/04 04:40:42;;;;;;;4.40;4.40;;;;;;;;;;5023965;28;20835;-73
2024/03/04 04:43:09;;;;;;;4.30;4.30;;;;;;;;;;5026513;28;20477;-72
2024/03/04 04:45:36;;;;;;;4.47;4.47;;;;;;;;;;5026294;28;20469;-72
2024/03/04 04:48:04;;;;;;;4.53;4.53;;;;;;;;;;5029756;28;20463;-72
2024/03/04 04:50:32;;;;;;;4.80;4.80;;;;;;;;;;5021302;28;20469;-72
2024/03/04 04:52:59;;;;;;;4.57;4.57;;;;;;;;;;5023140;28;20855;-72
2024/03/04 04:55:26;;;;;;;4.57;4.57;;;;;;;;;;5025862;28;20465;-74
2024/03/04 04:57:55;;;;;;;4.53;4.53;;;;;;;;;;5022475;28;20457;-72
2024/03/04 05:00:22;;;;;;;4.80;4.80;;;;;;;;;;5028833;28;20457;-73
2024/03/04 05:02:49;;;;;;;4.90;4.90;;;;;;;;;;5014356;28;20469;-74
2024/03/04 05:05:16;;;;;;;5.13;5.03;;;;;;;;;;5016071;28;20653;-72
2024/03/04 05:07:43;;;;;;;5.70;5.60;;;;;;;;;;5017365;28;20466;-73
2024/03/04 05:10:11;;;;;;;5.20;5.10;;;;;;;;;;5021930;28;20691;-73
2024/03/04 05:12:38;;;;;;;4.93;4.93;;;;;;;;;;5026545;28;20811;-73
2024/03/04 05:15:08;;;;;;;4.67;4.67;;;;;;;;;;5023739;28;20467;-73
2024/03/04 05:17:36;;;;;;;4.80;4.80;;;;;;;;;;5026676;28;20484;-72
2024/03/04 05:20:06;;;;;;;5.40;5.30;;;;;;;;;;5024316;28;20871;-74
2024/03/04 05:22:34;;;;;;;5.43;5.33;;;;;;;;;;5019186;28;20489;-74
2024/03/04 05:25:01;;;;;;;5.50;5.40;;;;;;;;;;5018679;28;20564;-72
2024/03/04 05:27:30;;;;;;;5.40;5.30;;;;;;;;;;5019371;28;20465;-74
2024/03/04 05:29:58;;;;;;;5.67;5.57;;;;;;;;;;5021402;28;20967;-73
2024/03/04 05:32:26;;;;;;;5.80;5.70;;;;;;;;;;5026109;28;21256;-73
2024/03/04 05:34:53;;;;;;;6.20;6.10;;;;;;;;;;5023008;28;20465;-72
2024/03/04 05:37:21;;;;;;;6.20;6.10;;;;;;;;;;5025846;28;20568;-73
2024/03/04 05:39:48;;;;;;;6.50;6.40;;;;;;;;;;5016160;28;20494;-74
2024/03/04 05:42:17;;;;;;;6.90;6.80;;;;;;;;;;5026381;28;20473;-73
2024/03/04 05:44:45;;;;;;;6.30;6.20;;;;;;;;;;5023081;28;20461;-73
2024/03/04 05:47:12;;;;;;;6.27;6.17;;;;;;;;;;5015002;28;20470;-73
2024/03/04 05:49:41;;;;;;;6.40;6.30;;;;;;;;;;5023551;28;20472;-73
2024/03/04 05:52:08;;;;;;;6.07;5.97;;;;;;;;;;5018410;28;20485;-74
2024/03/04 05:54:35;;;;;;;5.67;5.57;;;;;;;;;;5025723;28;20496;-74
2024/03/04 05:57:02;;;;;;;5.83;5.73;;;;;;;;;;5025632;28;20462;-74
2024/03/04 05:59:29;;;;;;;5.80;5.70;;;;;;;;;;5022308;28;20971;-72
2024/03/04 06:01:56;;;;;;;5.67;5.57;;;;;;;;;;5018753;28;20493;-72
2024/03/04 06:04:24;;;;;;;5.80;5.70;;;;;;;;;;5019042;28;20461;-72
2024/03/04 06:06:53;;;;;;;5.73;5.63;;;;;;;;;;5023964;28;20498;-73
2024/03/04 06:09:21;;;;;;;5.03;5.03;;;;;;;;;;5024464;28;20897;-73
2024/03/04 06:11:49;;;;;;;5.50;5.40;;;;;;;;;;5016551;28;20462;-73
2024/03/04 06:14:18;;;;;;;5.57;5.47;;;;;;;;;;5026196;28;20489;-73
2024/03/04 06:16:45;;;;;;;5.97;5.87;;;;;;;;;;5024884;28;20465;-73
2024/03/04 06:19:13;;;;;;;5.90;5.80;;;;;;;;;;5015167;28;20478;-71
2024/03/04 06:21:40;;;;;;;6.27;6.17;;;;;;;;;;5025240;28;20505;-74
2024/03/04 06:24:08;;;;;;;5.70;5.60;;;;;;;;;;5019556;28;20466;-72
2024/03/04 06:26:39;;;;;;;5.80;5.70;;;;;;;;;;5022042;28;20472;-73
2024/03/04 06:29:07;;;;;;;6.03;5.93;;;;;;;;;;5020327;28;20984;-72
2024/03/04 06:31:34;;;;;;;6.43;6.33;;;;;;;;;;5013269;28;20468;-73
2024/03/04 06:34:02;;;;;;;6.33;6.23;;;;;;;;;;5020739;28;20528;-72
2024/03/04 06:36:29;;;;;;;5.83;5.73;;;;;;;;;;5016878;28;20856;-72
2024/03/04 06:38:57;;;;;;;6.10;6.00;;;;;;;;;;5020205;28;20465;-72
2024/03/04 06:44:07;;;;;;;6.03;5.93;;;;;;;;;;5017116;28;20464;-73
2024/03/04 06:46:34;;;;;;;5.90;5.80;;;;;;;;;;5025959;28;20480;-71
2024/03/04 06:49:02;;;;;;;5.77;5.67;;;;;;;;;;5016943;28;20473;-74
2024/03/04 06:51:32;;;;;;;6.03;5.93;;;;;;;;;;5018893;28;20469;-74
2024/03/04 06:53:59;;;;;;;6.07;5.97;;;;;;;;;;5011216;28;20505;-73
2024/03/04 06:56:27;;;;;;;6.00;5.90;;;;;;;;;;5021641;28;20472;-73
2024/03/04 06:58:54;;;;;;;6.07;5.97;;;;;;;;;;5025945;28;20827;-74
2024/03/04 07:01:21;;;;;;;6.80;6.70;;;;;;;;;;5016976;28;20481;-72
2024/03/04 07:03:49;;;;;;;6.77;6.67;;;;;;;;;;5019057;28;20491;-73
2024/03/04 07:06:16;;;;;;;6.90;6.80;;;;;;;;;;5026451;28;20465;-73
2024/03/04 07:08:43;;;;;;;6.80;6.70;;;;;;;;;;5023654;28;20828;-73
2024/03/04 07:11:12;;;;;;;7.20;7.10;;;;;;;;;;5024616;28;20465;-73
2024/03/04 07:13:41;;;;;;;7.30;7.20;;;;;;;;;;5025201;28;21031;-74
2024/03/04 07:16:09;;;;;;;7.50;7.40;;;;;;;;;;5022196;28;20469;-72
2024/03/04 07:18:36;;;;;;;8.00;7.90;;;;;;;;;;5023045;28;20576;-72
2024/03/04 07:21:05;;;;;;;8.60;8.50;;;;;;;;;;5022416;28;20479;-72
2024/03/04 07:23:32;;;;;;;8.23;8.13;;;;;;;;;;5024356;28;20461;-73
2024/03/04 07:26:00;;;;;;;8.60;8.50;;;;;;;;;;5024012;28;20464;-75
2024/03/04 07:28:28;;;;;;;8.40;8.30;;;;;;;;;;5029419;28;20811;-73
2024/03/04 07:30:56;;;;;;;9.10;8.90;;;;;;;;;;5027925;28;20465;-73
2024/03/04 07:33:23;;;;;;;8.70;8.60;;;;;;;;;;5023150;28;20481;-74
2024/03/04 07:35:50;;;;;;;9.33;9.13;;;;;;;;;;5019883;28;20466;-72
2024/03/04 07:38:17;;;;;;;8.83;8.70;;;;;;;;;;5024010;28;20466;-73
2024/03/04 07:40:45;;;;;;;8.63;8.53;;;;;;;;;;5028069;28;20555;-73
2024/03/04 07:43:12;;;;;;;8.97;8.77;;;;;;;;;;5024250;28;20999;-74
2024/03/04 07:45:39;;;;;;;9.30;9.10;;;;;;;;;;5023893;28;20857;-73
2024/03/04 07:48:09;;;;;;;9.30;9.10;;;;;;;;;;5018686;28;20461;-72
2024/03/04 07:50:36;;;;;;;9.40;9.20;;;;;;;;;;5017503;28;20463;-73
2024/03/04 07:53:03;;;;;;;9.97;9.77;;;;;;;;;;5022341;28;20497;-72
2024/03/04 07:55:30;;;;;;;9.90;9.70;;;;;;;;;;5023447;28;20459;-73
2024/03/04 07:57:58;;;;;;;10.30;10.10;;;;;;;;;;5019676;28;20466;-73
2024/03/04 08:00:25;;;;;;;10.23;10.03;;;;;;;;;;5024633;28;20943;-72
2024/03/04 08:02:52;;;;;;;9.50;9.30;;;;;;;;;;5020698;28;20470;-75
2024/03/04 08:05:22;;;;;;;9.90;9.70;;;;;;;;;;5024979;28;20476;-73
2024/03/04 08:07:49;;;;;;;10.57;10.37;;;;;;;;;;5024614;28;20516;-74
2024/03/04 08:10:17;;;;;;;9.97;9.77;;;;;;;;;;5022952;28;20484;-75
2024/03/04 08:12:45;;;;;;;10.90;10.60;;;;;;;;;;5019872;28;20498;-73
2024/03/04 08:15:12;;;;;;;11.10;10.80;;;;;;;;;;5027820;28;20507;-75
2024/03/04 08:17:40;;;;;;;10.90;10.60;;;;;;;;;;5027065;28;20457;-73
2024/03/04 08:20:07;;;;;;;11.10;10.80;;;;;;;;;;5025279;28;20524;-73
2024/03/04 08:22:36;;;;;;;12.13;11.83;;;;;;;;;;5018060;28;20457;-73
2024/03/04 08:25:04;;;;;;;12.50;12.10;;;;;;;;;;5021213;28;20471;-74
2024/03/04 08:27:32;;;;;;;12.60;12.20;;;;;;;;;;5026689;28;20472;-73
2024/03/04 08:29:59;;;;;;;12.73;12.33;;;;;;;;;;5018444;28;20824;-73
2024/03/04 08:32:26;;;;;;;12.17;11.87;;;;;;;;;;5017401;28;20468;-75
2024/03/04 08:34:53;;;;;;;12.20;11.90;;;;;;;;;;5027390;28;20499;-73
2024/03/04 08:37:20;;;;;;;11.50;11.20;;;;;;;;;;5021352;28;20461;-74
2024/03/04 08:39:48;;;;;;;11.97;11.67;;;;;;;;;;5007551;28;20473;-73
2024/03/04 08:42:16;;;;;;;12.17;11.87;;;;;;;;;;5009589;28;20496;-74
2024/03/04 08:44:43;;;;;;;12.03;11.73;;;;;;;;;;5014656;28;20990;-74
2024/03/04 08:47:10;;;;;;;12.67;12.27;;;;;;;;;;5014650;28;20487;-73
2024/03/04 08:49:37;;;;;;;12.43;12.10;;;;;;;;;;5015671;28;20509;-73
2024/03/04 08:52:04;;;;;;;12.40;12.03;;;;;;;;;;5011886;28;20832;-73
2024/03/04 08:54:32;;;;;;;12.80;12.40;;;;;;;;;;5015441;28;20493;-73
2024/03/04 08:57:00;;;;;;;13.30;12.90;;;;;;;;;;5012421;28;20457;-74
2024/03/04 08:59:28;;;;;;;13.50;13.10;;;;;;;;;;5013882;28;20473;-73
2024/03/04 09:01:55;;;;;;;13.40;13.00;;;;;;;;;;5011682;28;20535;-73
2024/03/04 09:04:22;;;;;;;13.03;12.63;;;;;;;;;;5014211;28;20462;-73
2024/03/04 09:06:49;;;;;;;14.10;13.60;;;;;;;;;;5015123;28;20478;-73
2024/03/04 09:09:17;;;;;;;13.87;13.37;;;;;;;;;;5013228;28;20980;-73
2024/03/04 09:11:44;;;;;;;13.77;13.27;;;;;;;;;;5013121;28;21039;-73
2024/03/04 09:14:12;;;;;;;14.30;13.80;;;;;;;;;;5015191;28;20501;-74
2024/03/04 09:16:39;;;;;;;14.40;13.90;;;;;;;;;;5013866;28;20549;-73
2024/03/04 09:19:06;;;;;;;15.00;14.43;;;;;;;;;;5015058;28;20481;-73
2024/03/04 09:21:34;;;;;;;14.07;13.57;;;;;;;;;;5011749;28;20573;-74
2024/03/04 09:24:01;;;;;;;14.47;13.97;;;;;;;;;;5014371;28;20481;-75
2024/03/04 09:26:28;;;;;;;14.53;14.03;;;;;;;;;;5014145;28;20472;-74
2024/03/04 09:28:56;;;;;;;14.60;14.10;;;;;;;;;;5012445;28;20475;-75
2024/03/04 09:31:25;;;;;;;14.60;14.10;;;;;;;;;;5012235;28;20466;-74
2024/03/04 09:33:52;;;;;;;14.73;14.23;;;;;;;;;;5013319;28;20490;-74
2024/03/04 09:36:20;;;;;;;14.03;13.53;;;;;;;;;;5013822;28;20553;-74
2024/03/04 09:38:47;;;;;;;14.30;13.80;;;;;;;;;;5014910;28;20547;-73
2024/03/04 09:41:14;;;;;;;14.17;13.67;;;;;;;;;;5012078;28;20483;-75
2024/03/04 09:43:41;;;;;;;14.20;13.70;;;;;;;;;;5014824;28;20450;-73
2024/03/04 09:46:08;;;;;;;14.20;13.70;;;;;;;;;;5011037;28;20468;-73
2024/03/04 09:48:39;;;;;;;13.90;13.40;;;;;;;;;;5011753;28;20501;-74
2024/03/04 09:51:07;;;;;;;14.27;13.77;;;;;;;;;;5012902;28;20963;-73
2024/03/04 09:53:36;;;;;;;14.13;13.63;;;;;;;;;;5015044;28;20489;-73
2024/03/04 09:56:04;;;;;;;14.00;13.50;;;;;;;;;;5013618;28;20472;-73
2024/03/04 09:58:31;;;;;;;14.50;14.00;;;;;;;;;;5014623;28;20560;-75
2024/03/04 10:00:59;;;;;;;14.67;14.17;;;;;;;;;;5014006;28;20477;-73
2024/03/04 10:03:28;;;;;;;14.73;14.23;;;;;;;;;;5014036;28;20463;-73
2024/03/04 10:05:57;;;;;;;15.00;14.50;;;;;;;;;;5012377;28;21362;-73
2024/03/04 10:08:25;;;;;;;15.07;14.47;;;;;;;;;;5010349;28;20551;-73
2024/03/04 10:10:52;;;;;;;15.33;14.73;;;;;;;;;;5014300;28;20480;-73
2024/03/04 10:13:20;;;;;;;15.00;14.50;;;;;;;;;;5014435;28;20972;-75
2024/03/04 10:15:48;;;;;;;15.17;14.57;;;;;;;;;;5012778;28;20522;-74
2024/03/04 10:18:16;;;;;;;14.80;14.30;;;;;;;;;;5010347;28;20477;-74
2024/03/04 10:20:43;;;;;;;14.60;14.10;;;;;;;;;;5010120;28;20477;-73
2024/03/04 10:23:12;;;;;;;15.10;14.50;;;;;;;;;;5011908;28;20457;-75
2024/03/04 10:25:39;;;;;;;15.13;14.53;;;;;;;;;;5011727;28;20470;-74
2024/03/04 10:28:07;;;;;;;15.50;14.90;;;;;;;;;;5012571;28;20871;-75
2024/03/04 10:30:34;;;;;;;14.73;14.23;;;;;;;;;;5010778;28;20465;-73
2024/03/04 10:33:02;;;;;;;14.83;14.33;;;;;;;;;;5011749;28;20470;-73
2024/03/04 10:35:30;;;;;;;14.97;14.47;;;;;;;;;;5013359;28;20586;-76
2024/03/04 10:37:59;;;;;;;14.67;14.17;;;;;;;;;;5011091;28;20499;-74
2024/03/04 10:40:28;;;;;;;14.90;14.40;;;;;;;;;;5013571;28;20469;-75
2024/03/04 10:42:59;;;;;;;14.87;14.37;;;;;;;;;;5017081;28;20567;-74
2024/03/04 10:45:30;;;;;;;15.30;14.70;;;;;;;;;;5016954;28;20461;-74
2024/03/04 10:47:57;;;;;;;15.10;14.57;;;;;;;;;;5017446;28;20465;-75
2024/03/04 10:50:24;;;;;;;15.30;14.80;;;;;;;;;;5016577;28;20976;-73
2024/03/04 10:52:52;;;;;;;15.30;14.70;;;;;;;;;;5014886;28;20468;-74
2024/03/04 10:55:20;;;;;;;15.10;14.60;;;;;;;;;;5015668;28;20527;-74
2024/03/04 10:57:49;;;;;;;14.87;14.37;;;;;;;;;;5018102;28;20470;-75
2024/03/04 11:00:25;;;;;;;15.33;14.73;;;;;;;;;;5016790;28;20833;-75
2024/03/04 11:02:58;;;;;;;15.37;14.77;;;;;;;;;;5016846;28;20871;-74
2024/03/04 11:05:26;;;;;;;15.43;14.83;;;;;;;;;;5015065;28;20473;-75
2024/03/04 11:07:54;;;;;;;15.70;15.10;;;;;;;;;;5015410;28;20485;-75
2024/03/04 11:10:26;;;;;;;15.00;14.50;;;;;;;;;;5015526;28;20498;-74
2024/03/04 11:13:11;;;;;;;15.37;14.77;;;;;;;;;;5016847;28;20484;-75
2024/03/04 11:15:41;;;;;;;15.30;14.70;;;;;;;;;;5016740;28;20584;-76
2024/03/04 11:18:13;;;;;;;15.47;14.87;;;;;;;;;;5013836;28;20976;-75
2024/03/04 11:20:46;;;;;;;15.23;14.63;;;;;;;;;;5021000;28;20549;-73
2024/03/04 11:23:13;;;;;;;15.20;14.60;;;;;;;;;;5015904;28;20496;-75
2024/03/04 11:25:41;;;;;;;14.87;14.37;;;;;;;;;;5018693;28;20473;-75
2024/03/04 11:28:11;;;;;;;14.70;14.20;;;;;;;;;;5012888;28;20998;-75
2024/03/04 11:30:39;;;;;;;15.13;14.63;;;;;;;;;;5016094;28;20920;-75
2024/03/04 11:33:25;;;;;;;14.90;14.40;;;;;;;;;;5018917;28;20469;-74
2024/03/04 11:35:52;;;;;;;14.90;14.40;;;;;;;;;;5016811;28;20916;-73
2024/03/04 11:38:27;;;;;;;14.70;14.20;;;;;;;;;;5015280;28;20457;-74
2024/03/04 11:40:57;;;;;;;15.23;14.63;;;;;;;;;;5018112;28;20462;-74
2024/03/04 11:43:45;;;;;;;14.90;14.40;;;;;;;;;;5016532;28;20465;-74
2024/03/04 11:46:13;;;;;;;15.30;14.70;;;;;;;;;;5015358;28;20811;-74
2024/03/04 11:48:41;;;;;;;15.27;14.67;;;;;;;;;;5019218;28;20560;-74
2024/03/04 11:51:09;;;;;;;15.13;14.53;;;;;;;;;;5014115;28;20478;-74
2024/03/04 11:53:37;;;;;;;15.33;14.73;;;;;;;;;;5015699;28;20487;-74
2024/03/04 11:56:05;;;;;;;15.30;14.70;;;;;;;;;;5014761;28;20464;-75
2024/03/04 11:58:33;;;;;;;15.53;14.93;;;;;;;;;;5016340;28;20517;-75
2024/03/04 12:01:01;;;;;;;15.50;14.90;;;;;;;;;;5016104;28;20545;-75
2024/03/04 12:03:29;;;;;;;15.43;14.83;;;;;;;;;;5014550;28;20552;-74
2024/03/04 12:05:56;;;;;;;15.10;14.60;;;;;;;;;;5015262;28;20486;-76
2024/03/04 12:08:24;;;;;;;14.97;14.47;;;;;;;;;;5013081;28;20989;-75
2024/03/04 12:10:50;;;;;;;14.80;14.30;;;;;;;;;;5017561;28;20542;-75
2024/03/04 12:13:18;;;;;;;15.40;14.80;;;;;;;;;;5018763;28;20469;-76
2024/03/04 12:15:46;;;;;;;14.70;14.20;;;;;;;;;;5017331;28;20575;-75
2024/03/04 12:18:14;;;;;;;14.73;14.23;;;;;;;;;;5014978;28;20458;-74
2024/03/04 12:20:42;;;;;;;14.90;14.40;;;;;;;;;;5015413;28;20476;-74
2024/03/04 12:23:10;;;;;;;14.60;14.10;;;;;;;;;;5011060;28;20511;-74
2024/03/04 12:25:37;;;;;;;15.43;14.83;;;;;;;;;;5015379;28;20466;-75
2024/03/04 12:28:05;;;;;;;14.90;14.40;;;;;;;;;;5016859;28;20470;-76
2024/03/04 12:30:33;;;;;;;15.33;14.73;;;;;;;;;;5017129;28;20470;-76
2024/03/04 12:33:02;;;;;;;14.97;14.47;;;;;;;;;;5017335;28;20478;-74
2024/03/04 12:35:31;;;;;;;14.90;14.40;;;;;;;;;;5014532;28;20498;-74
2024/03/04 12:37:58;;;;;;;15.30;14.70;;;;;;;;;;5013660;28;20537;-75
2024/03/04 12:40:26;;;;;;;14.70;14.20;;;;;;;;;;5013242;28;20477;-74
2024/03/04 12:42:54;;;;;;;14.97;14.47;;;;;;;;;;5015419;28;20514;-74
2024/03/04 12:45:22;;;;;;;14.87;14.37;;;;;;;;;;5014472;28;20584;-74
2024/03/04 12:47:51;;;;;;;14.83;14.33;;;;;;;;;;5013358;28;20467;-74
2024/03/04 12:50:20;;;;;;;14.50;14.00;;;;;;;;;;5017117;28;20551;-75
2024/03/04 12:52:48;;;;;;;15.23;14.63;;;;;;;;;;5016290;28;20558;-74
2024/03/04 12:55:16;;;;;;;15.17;14.57;;;;;;;;;;5014445;28;20995;-76
2024/03/04 12:57:43;;;;;;;15.37;14.77;;;;;;;;;;5012354;28;20983;-75
2024/03/04 13:00:13;;;;;;;14.83;14.33;;;;;;;;;;5015338;28;20468;-75
2024/03/04 13:02:41;;;;;;;15.17;14.60;;;;;;;;;;5014862;28;20487;-76
2024/03/04 13:05:09;;;;;;;15.00;14.47;;;;;;;;;;5013709;28;20491;-76
2024/03/04 13:07:36;;;;;;;14.60;14.10;;;;;;;;;;5010599;28;20487;-77
2024/03/04 13:10:06;;;;;;;14.80;14.30;;;;;;;;;;5016124;28;20471;-76
2024/03/04 13:12:34;;;;;;;14.83;14.33;;;;;;;;;;5013235;28;20461;-75
2024/03/04 13:15:02;;;;;;;14.70;14.20;;;;;;;;;;5013249;28;20532;-74
2024/03/04 13:17:29;;;;;;;14.50;14.00;;;;;;;;;;5012360;28;20564;-74
2024/03/04 13:19:56;;;;;;;14.70;14.20;;;;;;;;;;5014151;28;20976;-75
2024/03/04 13:22:24;;;;;;;14.60;14.10;;;;;;;;;;5015355;28;20498;-75
2024/03/04 13:24:55;;;;;;;14.30;13.80;;;;;;;;;;5003534;28;20994;-75
2024/03/04 13:27:24;;;;;;;14.30;13.80;;;;;;;;;;5012862;28;20817;-76
2024/03/04 13:29:51;;;;;;;14.90;14.40;;;;;;;;;;5015082;28;21006;-75
2024/03/04 13:32:19;;;;;;;14.40;13.90;;;;;;;;;;5013488;28;20930;-75
2024/03/04 13:34:46;;;;;;;14.60;14.10;;;;;;;;;;5013040;28;20490;-76
2024/03/04 13:37:14;;;;;;;14.90;14.40;;;;;;;;;;5012871;28;20470;-75
2024/03/04 13:39:41;;;;;;;14.90;14.40;;;;;;;;;;5016332;28;20458;-73
2024/03/04 13:42:08;;;;;;;15.20;14.60;;;;;;;;;;5016911;28;20466;-73
2024/03/04 13:44:37;;;;;;;15.50;14.90;;;;;;;;;;5016507;28;20475;-73
2024/03/04 13:47:04;;;;;;;15.40;14.80;;;;;;;;;;5016691;28;20489;-74
2024/03/04 13:49:31;;;;;;;15.20;14.60;;;;;;;;;;5012057;28;20466;-76
2024/03/04 13:51:58;;;;;;;14.93;14.43;;;;;;;;;;5014078;28;20475;-77
2024/03/04 13:54:25;;;;;;;15.10;14.60;;;;;;;;;;5016576;28;20492;-76
2024/03/04 13:56:53;;;;;;;15.70;15.10;;;;;;;;;;5016783;28;21002;-76
2024/03/04 13:59:20;;;;;;;15.20;14.70;;;;;;;;;;5011829;28;20635;-73
2024/03/04 14:01:48;;;;;;;15.60;15.00;;;;;;;;;;5011901;28;22198;-76
2024/03/04 14:04:15;;;;;;;15.40;14.90;;;;;;;;;;5016057;28;20504;-73
2024/03/04 14:06:43;;;;;;;15.90;15.30;;;;;;;;;;5015694;28;20466;-74
2024/03/04 14:09:10;;;;;;;16.20;15.60;;;;;;;;;;5012407;28;20468;-74
2024/03/04 14:11:37;;;;;;;16.80;16.17;;;;;;;;;;5014257;28;20517;-75
2024/03/04 14:14:04;;;;;;;17.17;16.47;;;;;;;;;;5011095;28;20481;-74
2024/03/04 14:16:31;;;;;;;16.97;16.30;;;;;;;;;;5021249;28;20504;-74
2024/03/04 14:19:00;;;;;;;16.53;15.93;;;;;;;;;;5021278;28;20914;-74
2024/03/04 14:21:27;;;;;;;16.33;15.73;;;;;;;;;;5022127;28;22189;-75
2024/03/04 14:23:54;;;;;;;16.40;15.80;;;;;;;;;;5019121;28;20462;-74
2024/03/04 14:26:22;;;;;;;16.30;15.70;;;;;;;;;;5019742;28;20519;-76
2024/03/04 14:28:49;;;;;;;16.33;15.73;;;;;;;;;;5019532;28;20470;-74
2024/03/04 14:31:17;;;;;;;15.80;15.20;;;;;;;;;;5020847;28;21754;-74
2024/03/04 14:33:45;;;;;;;16.20;15.60;;;;;;;;;;5020745;28;20466;-73
2024/03/04 14:36:14;;;;;;;16.07;15.50;;;;;;;;;;5021719;28;20503;-73
2024/03/04 14:38:41;;;;;;;16.07;15.47;;;;;;;;;;5016818;28;20879;-74